createdAt,value
2017-08-17T00:01:07.683Z,20.11
2017-08-17T00:03:35.283Z,20.08
2017-08-17T00:06:02.923Z,20.09
2017-08-17T00:08:30.557Z,19.57
2017-08-17T00:10:58.248Z,19.48
2017-08-17T00:13:25.963Z,19.66
2017-08-17T00:15:53.957Z,19.99
2017-08-17T00:18:21.643Z,19.88
2017-08-17T00:20:49.369Z,19.65
2017-08-17T00:23:17.360Z,19.71
2017-08-17T00:25:45.128Z,19.63
2017-08-17T00:28:13.106Z,19.65
2017-08-17T00:30:41.135Z,19.77
2017-08-17T00:33:08.848Z,19.70
2017-08-17T00:35:36.577Z,19.61
2017-08-17T00:38:04.535Z,19.55
2017-08-17T00:40:32.355Z,19.55
2017-08-17T00:43:00.311Z,19.36
2017-08-17T00:45:28.338Z,19.16
2017-08-17T00:47:56.105Z,18.97
2017-08-17T00:50:24.096Z,18.75
2017-08-17T00:52:51.984Z,18.85
2017-08-17T00:55:19.828Z,18.92
2017-08-17T00:57:47.697Z,18.96
2017-08-17T01:00:15.585Z,19.12
2017-08-17T01:02:43.432Z,19.00
2017-08-17T01:05:11.296Z,18.93
2017-08-17T01:07:39.042Z,18.82
2017-08-17T01:10:07.007Z,18.67
2017-08-17T01:12:34.828Z,18.79
2017-08-17T01:15:02.782Z,18.71
2017-08-17T01:17:30.631Z,18.60
2017-08-17T01:19:58.318Z,18.51
2017-08-17T01:22:26.178Z,18.81
2017-08-17T01:24:53.843Z,18.75
2017-08-17T01:27:21.676Z,18.68
2017-08-17T01:29:49.767Z,18.62
2017-08-17T01:32:17.651Z,18.65
2017-08-17T01:34:45.500Z,18.80
2017-08-17T01:37:13.395Z,18.74
2017-08-17T01:39:41.034Z,18.55
2017-08-17T01:42:08.877Z,18.54
2017-08-17T01:44:36.647Z,18.40
2017-08-17T01:47:14.746Z,18.65
2017-08-17T01:49:42.780Z,18.78
2017-08-17T01:52:10.721Z,18.99
2017-08-17T01:54:38.693Z,18.93
2017-08-17T01:57:06.607Z,18.98
2017-08-17T01:59:34.573Z,18.85
2017-08-17T02:02:02.497Z,18.64
2017-08-17T02:04:30.364Z,18.69
2017-08-17T02:06:58.025Z,18.75
2017-08-17T02:09:25.741Z,18.74
2017-08-17T02:11:53.752Z,18.79
2017-08-17T02:14:21.450Z,18.63
2017-08-17T02:16:49.261Z,18.83
2017-08-17T02:19:18.179Z,18.69
2017-08-17T02:21:45.900Z,18.84
2017-08-17T02:24:13.618Z,18.88
2017-08-17T02:26:41.574Z,18.98
2017-08-17T02:29:09.425Z,18.75
2017-08-17T02:31:37.098Z,18.88
2017-08-17T02:34:04.972Z,19.09
2017-08-17T02:36:32.632Z,18.96
2017-08-17T02:39:00.501Z,18.92
2017-08-17T02:41:28.380Z,18.91
2017-08-17T02:43:56.240Z,18.68
2017-08-17T02:46:24.089Z,18.45
2017-08-17T02:48:52.136Z,18.29
2017-08-17T02:51:20.037Z,18.33
2017-08-17T02:53:48.096Z,18.46
2017-08-17T02:56:16.161Z,18.43
2017-08-17T02:58:43.844Z,18.43
2017-08-17T03:01:11.548Z,18.27
2017-08-17T03:03:39.536Z,18.08
2017-08-17T03:06:07.446Z,18.09
2017-08-17T03:08:35.469Z,18.32
2017-08-17T03:11:03.287Z,18.28
2017-08-17T03:13:31.158Z,18.34
2017-08-17T03:15:59.296Z,18.46
2017-08-17T03:18:27.361Z,18.43
2017-08-17T03:20:55.292Z,18.56
2017-08-17T03:23:23.291Z,18.57
2017-08-17T03:25:51.364Z,18.34
2017-08-17T03:28:19.271Z,18.27
2017-08-17T03:30:47.001Z,18.45
2017-08-17T03:33:14.990Z,18.45
2017-08-17T03:35:42.610Z,18.35
2017-08-17T03:38:10.499Z,18.44
2017-08-17T03:40:38.245Z,18.50
2017-08-17T03:43:06.085Z,18.51
2017-08-17T03:45:33.778Z,18.41
2017-08-17T03:48:01.792Z,18.55
2017-08-17T03:50:29.458Z,18.66
2017-08-17T03:52:57.176Z,18.46
2017-08-17T03:55:25.103Z,18.44
2017-08-17T03:57:52.853Z,18.55
2017-08-17T04:00:20.579Z,19.28
2017-08-17T04:02:48.585Z,19.94
2017-08-17T04:05:16.253Z,20.63
2017-08-17T04:07:43.907Z,21.35
2017-08-17T04:10:11.569Z,22.23
2017-08-17T04:12:39.290Z,22.79
2017-08-17T04:15:07.107Z,23.24
2017-08-17T04:17:34.989Z,23.95
2017-08-17T04:20:02.743Z,24.15
2017-08-17T04:22:30.705Z,24.71
2017-08-17T04:24:58.722Z,24.99
2017-08-17T04:27:26.432Z,25.64
2017-08-17T04:29:54.279Z,26.29
2017-08-17T04:32:22.172Z,26.99
2017-08-17T04:34:49.892Z,27.20
2017-08-17T04:37:17.881Z,27.69
2017-08-17T04:39:45.773Z,27.54
2017-08-17T04:42:13.615Z,28.38
2017-08-17T04:44:41.508Z,28.99
2017-08-17T04:47:09.526Z,29.49
2017-08-17T04:49:37.346Z,29.42
2017-08-17T04:52:11.864Z,29.65
2017-08-17T04:54:39.523Z,29.38
2017-08-17T04:57:29.718Z,29.89
2017-08-17T04:59:57.560Z,29.73
2017-08-17T05:02:25.454Z,30.21
2017-08-17T05:04:53.524Z,30.76
2017-08-17T05:07:21.361Z,31.56
2017-08-17T05:09:49.259Z,29.41
2017-08-17T05:12:17.196Z,30.52
2017-08-17T05:14:45.115Z,31.31
2017-08-17T05:17:13.063Z,31.79
2017-08-17T05:19:41.135Z,30.68
2017-08-17T05:22:08.795Z,31.73
2017-08-17T05:24:36.630Z,32.08
2017-08-17T05:27:04.598Z,31.95
2017-08-17T05:29:32.629Z,32.21
2017-08-17T05:32:00.264Z,32.65
2017-08-17T05:34:28.299Z,33.27
2017-08-17T05:36:56.003Z,32.75
2017-08-17T05:39:23.709Z,32.80
2017-08-17T05:41:51.732Z,32.33
2017-08-17T05:44:19.570Z,33.04
2017-08-17T05:46:47.469Z,33.87
2017-08-17T05:49:15.333Z,33.37
2017-08-17T05:51:43.069Z,32.76
2017-08-17T05:54:11.038Z,32.77
2017-08-17T05:56:38.722Z,32.72
2017-08-17T05:59:06.700Z,33.55
2017-08-17T06:01:34.562Z,34.54
2017-08-17T06:04:02.382Z,35.07
2017-08-17T06:06:30.349Z,35.39
2017-08-17T06:08:58.171Z,35.42
2017-08-17T06:11:25.986Z,35.31
2017-08-17T06:13:53.608Z,35.88
2017-08-17T06:16:21.346Z,36.53
2017-08-17T06:18:49.109Z,36.34
2017-08-17T06:21:16.832Z,34.32
2017-08-17T06:23:44.721Z,36.19
2017-08-17T06:26:12.401Z,37.03
2017-08-17T06:28:40.024Z,37.46
2017-08-17T06:31:07.737Z,38.25
2017-08-17T06:33:35.416Z,37.75
2017-08-17T06:36:03.017Z,37.55
2017-08-17T06:38:30.674Z,36.93
2017-08-17T06:40:58.420Z,36.94
2017-08-17T06:43:26.049Z,37.50
2017-08-17T06:45:53.653Z,38.82
2017-08-17T06:48:21.310Z,37.70
2017-08-17T06:50:48.935Z,38.21
2017-08-17T06:53:16.595Z,37.22
2017-08-17T06:55:44.276Z,38.52
2017-08-17T06:58:11.906Z,37.93
2017-08-17T07:00:39.566Z,38.87
2017-08-17T07:03:07.232Z,37.62
2017-08-17T07:05:34.864Z,37.41
2017-08-17T07:08:02.480Z,37.71
2017-08-17T07:10:30.159Z,37.75
2017-08-17T07:12:57.790Z,37.83
2017-08-17T07:15:25.372Z,37.34
2017-08-17T07:17:53.607Z,37.45
2017-08-17T07:20:21.206Z,36.09
2017-08-17T07:22:49.038Z,36.55
2017-08-17T07:25:17.021Z,37.26
2017-08-17T07:27:44.747Z,37.81
2017-08-17T07:30:12.761Z,37.22
2017-08-17T07:32:40.558Z,39.03
2017-08-17T07:35:08.491Z,38.84
2017-08-17T07:37:36.315Z,38.56
2017-08-17T07:40:04.000Z,38.93
2017-08-17T07:42:31.728Z,37.89
2017-08-17T07:44:59.542Z,38.38
2017-08-17T07:47:27.208Z,38.29
2017-08-17T07:49:54.929Z,38.23
2017-08-17T07:52:22.943Z,39.15
2017-08-17T07:54:50.807Z,38.75
2017-08-17T07:57:18.534Z,39.05
2017-08-17T07:59:46.522Z,37.06
2017-08-17T08:02:14.518Z,36.71
2017-08-17T08:04:42.231Z,38.19
2017-08-17T08:07:10.145Z,38.59
2017-08-17T08:09:38.216Z,38.85
2017-08-17T08:12:05.931Z,38.53
2017-08-17T08:14:33.900Z,37.92
2017-08-17T08:17:01.969Z,39.17
2017-08-17T08:19:29.684Z,39.23
2017-08-17T08:21:57.404Z,39.54
2017-08-17T08:24:25.272Z,38.80
2017-08-17T08:26:53.285Z,38.22
2017-08-17T08:29:21.130Z,36.97
2017-08-17T08:31:49.020Z,38.11
2017-08-17T08:34:17.089Z,37.10
2017-08-17T08:36:44.937Z,37.96
2017-08-17T08:39:12.618Z,38.70
2017-08-17T08:41:40.282Z,37.73
2017-08-17T08:44:07.943Z,36.79
2017-08-17T08:46:35.818Z,38.19
2017-08-17T08:49:03.826Z,39.01
2017-08-17T08:51:31.735Z,37.88
2017-08-17T08:53:59.780Z,38.48
2017-08-17T08:56:27.489Z,39.29
2017-08-17T08:58:55.319Z,39.52
2017-08-17T09:01:23.060Z,37.56
2017-08-17T09:03:50.977Z,38.16
2017-08-17T09:06:18.950Z,38.16
2017-08-17T09:08:47.024Z,37.64
2017-08-17T09:11:14.878Z,38.67
2017-08-17T09:13:42.596Z,38.96
2017-08-17T09:16:10.487Z,38.29
2017-08-17T09:18:38.476Z,36.45
2017-08-17T09:21:06.197Z,37.91
2017-08-17T09:23:34.225Z,37.39
2017-08-17T09:26:02.055Z,38.37
2017-08-17T09:28:29.741Z,38.76
2017-08-17T09:30:57.410Z,39.75
2017-08-17T09:33:25.257Z,39.19
2017-08-17T09:35:53.000Z,37.83
2017-08-17T09:38:21.016Z,38.12
2017-08-17T09:40:48.737Z,38.39
2017-08-17T09:43:16.701Z,38.03
2017-08-17T09:45:44.521Z,37.11
2017-08-17T09:48:12.484Z,38.03
2017-08-17T09:50:40.205Z,38.90
2017-08-17T09:53:08.422Z,37.60
2017-08-17T09:55:36.262Z,37.15
2017-08-17T09:58:04.007Z,38.15
2017-08-17T10:00:31.974Z,39.20
2017-08-17T10:02:59.685Z,38.17
2017-08-17T10:05:27.733Z,39.44
2017-08-17T10:07:55.361Z,39.95
2017-08-17T10:10:22.915Z,39.67
2017-08-17T10:12:50.482Z,39.69
2017-08-17T10:15:18.193Z,40.12
2017-08-17T10:17:45.770Z,40.48
2017-08-17T10:20:13.364Z,39.36
2017-08-17T10:22:40.966Z,39.13
2017-08-17T10:25:08.531Z,39.56
2017-08-17T10:27:36.094Z,39.59
2017-08-17T10:30:03.738Z,39.90
2017-08-17T10:32:31.418Z,40.66
2017-08-17T10:34:58.980Z,40.86
2017-08-17T10:37:26.596Z,40.26
2017-08-17T10:39:54.163Z,39.36
2017-08-17T10:42:21.825Z,37.88
2017-08-17T10:44:49.412Z,39.34
2017-08-17T10:47:17.024Z,40.48
2017-08-17T10:49:44.586Z,40.23
2017-08-17T10:52:12.194Z,38.98
2017-08-17T10:54:39.747Z,38.34
2017-08-17T10:57:07.311Z,39.73
2017-08-17T10:59:34.915Z,39.94
2017-08-17T11:02:02.483Z,41.17
2017-08-17T11:04:30.047Z,42.39
2017-08-17T11:06:57.671Z,41.59
2017-08-17T11:09:25.244Z,38.71
2017-08-17T11:11:52.820Z,38.47
2017-08-17T11:14:20.452Z,37.84
2017-08-17T11:16:48.006Z,39.68
2017-08-17T11:19:15.579Z,39.76
2017-08-17T11:21:43.199Z,38.53
2017-08-17T11:24:10.748Z,39.55
2017-08-17T11:26:38.361Z,40.70
2017-08-17T11:29:05.975Z,40.94
2017-08-17T11:31:33.540Z,39.71
2017-08-17T11:34:01.112Z,38.10
2017-08-17T11:36:28.721Z,39.80
2017-08-17T11:38:56.277Z,40.91
2017-08-17T11:41:23.937Z,39.91
2017-08-17T11:43:51.551Z,40.35
2017-08-17T11:46:19.113Z,40.55
2017-08-17T11:48:46.145Z,41.19
2017-08-17T11:51:13.203Z,39.95
2017-08-17T11:53:40.815Z,39.55
2017-08-17T11:56:08.384Z,39.49
2017-08-17T11:58:36.024Z,40.56
2017-08-17T12:01:03.598Z,40.31
2017-08-17T12:03:31.171Z,41.19
2017-08-17T12:05:58.815Z,38.33
2017-08-17T12:08:26.390Z,39.76
2017-08-17T12:10:53.937Z,40.07
2017-08-17T12:13:21.542Z,40.90
2017-08-17T12:15:49.106Z,40.26
2017-08-17T12:18:16.658Z,40.02
2017-08-17T12:20:44.270Z,39.67
2017-08-17T12:23:11.827Z,39.04
2017-08-17T12:25:39.386Z,39.44
2017-08-17T12:28:07.057Z,39.71
2017-08-17T12:30:34.624Z,38.78
2017-08-17T12:33:02.223Z,39.07
2017-08-17T12:35:29.890Z,39.33
2017-08-17T12:37:57.439Z,39.32
2017-08-17T12:40:25.024Z,39.56
2017-08-17T12:42:52.648Z,38.38
2017-08-17T12:45:20.222Z,37.69
2017-08-17T12:47:47.782Z,37.88
2017-08-17T12:50:15.377Z,37.34
2017-08-17T12:52:42.910Z,36.75
2017-08-17T12:55:10.483Z,37.09
2017-08-17T12:57:38.102Z,37.07
2017-08-17T13:00:05.651Z,36.98
2017-08-17T13:02:33.197Z,37.21
2017-08-17T13:05:00.821Z,37.30
2017-08-17T13:07:28.425Z,36.06
2017-08-17T13:09:55.970Z,35.24
2017-08-17T13:12:23.574Z,34.85
2017-08-17T13:14:51.143Z,34.75
2017-08-17T13:17:18.699Z,34.76
2017-08-17T13:19:46.340Z,34.82
2017-08-17T13:22:13.894Z,34.79
2017-08-17T13:24:41.459Z,34.58
2017-08-17T13:27:09.286Z,34.29
2017-08-17T13:29:36.824Z,34.39
2017-08-17T13:32:04.364Z,34.64
2017-08-17T13:34:31.980Z,34.56
2017-08-17T13:36:59.537Z,34.54
2017-08-17T13:39:27.094Z,34.67
2017-08-17T13:41:54.709Z,34.25
2017-08-17T13:44:22.280Z,34.44
2017-08-17T13:46:50.016Z,34.64
2017-08-17T13:49:17.644Z,34.60
2017-08-17T13:51:45.214Z,34.40
2017-08-17T13:54:12.784Z,34.33
2017-08-17T13:56:40.393Z,34.31
2017-08-17T13:59:07.945Z,34.37
2017-08-17T14:01:35.507Z,34.37
2017-08-17T14:04:03.260Z,34.33
2017-08-17T14:06:30.805Z,34.59
2017-08-17T14:08:58.374Z,34.34
2017-08-17T14:11:25.986Z,34.27
2017-08-17T14:13:53.548Z,34.11
2017-08-17T14:16:21.100Z,34.28
2017-08-17T14:18:48.721Z,34.56
2017-08-17T14:21:16.304Z,34.73
2017-08-17T14:23:43.866Z,34.48
2017-08-17T14:26:11.473Z,33.82
2017-08-17T14:28:39.034Z,33.79
2017-08-17T14:31:06.594Z,33.57
2017-08-17T14:33:34.201Z,33.23
2017-08-17T14:36:01.753Z,33.13
2017-08-17T14:38:29.310Z,33.07
2017-08-17T14:40:56.938Z,33.02
2017-08-17T14:43:24.508Z,32.89
2017-08-17T14:45:52.063Z,32.87
2017-08-17T14:48:19.657Z,32.98
2017-08-17T14:50:47.219Z,33.08
2017-08-17T14:53:14.776Z,33.00
2017-08-17T14:55:42.391Z,32.97
2017-08-17T14:58:09.948Z,33.04
2017-08-17T15:00:37.519Z,33.13
2017-08-17T15:03:05.139Z,33.25
2017-08-17T15:05:32.713Z,33.29
2017-08-17T15:08:00.411Z,33.37
2017-08-17T15:10:28.081Z,33.22
2017-08-17T15:12:55.652Z,33.05
2017-08-17T15:15:23.237Z,33.12
2017-08-17T15:17:50.849Z,33.19
2017-08-17T15:20:18.383Z,33.27
2017-08-17T15:22:45.936Z,33.28
2017-08-17T15:25:13.559Z,33.34
2017-08-17T15:27:41.117Z,33.23
2017-08-17T15:30:08.731Z,33.26
2017-08-17T15:32:36.369Z,33.21
2017-08-17T15:35:04.033Z,33.19
2017-08-17T15:37:31.595Z,32.97
2017-08-17T15:39:59.222Z,32.95
2017-08-17T15:42:26.812Z,32.72
2017-08-17T15:44:54.362Z,32.72
2017-08-17T15:47:21.970Z,32.77
2017-08-17T15:49:49.520Z,32.59
2017-08-17T15:52:17.078Z,32.49
2017-08-17T15:54:44.706Z,32.41
2017-08-17T15:57:12.457Z,32.27
2017-08-17T15:59:40.079Z,32.21
2017-08-17T16:02:07.797Z,31.98
2017-08-17T16:04:35.419Z,31.94
2017-08-17T16:07:03.038Z,32.00
2017-08-17T16:09:30.707Z,31.87
2017-08-17T16:11:58.328Z,31.94
2017-08-17T16:14:25.920Z,31.94
2017-08-17T16:16:53.569Z,31.83
2017-08-17T16:19:21.168Z,31.81
2017-08-17T16:21:48.782Z,31.55
2017-08-17T16:24:16.449Z,31.43
2017-08-17T16:26:44.043Z,31.32
2017-08-17T16:29:11.655Z,31.08
2017-08-17T16:31:39.332Z,31.06
2017-08-17T16:34:06.957Z,31.03
2017-08-17T16:36:34.590Z,30.85
2017-08-17T16:39:02.247Z,30.62
2017-08-17T16:41:29.897Z,30.36
2017-08-17T16:43:57.503Z,30.17
2017-08-17T16:46:25.172Z,29.92
2017-08-17T16:48:52.791Z,29.67
2017-08-17T16:51:20.397Z,29.45
2017-08-17T16:53:48.059Z,29.26
2017-08-17T16:56:15.671Z,28.99
2017-08-17T16:58:43.258Z,28.68
2017-08-17T17:01:10.935Z,28.45
2017-08-17T17:03:38.595Z,28.16
2017-08-17T17:06:06.889Z,27.80
2017-08-17T17:08:34.930Z,27.47
2017-08-17T17:11:02.680Z,27.31
2017-08-17T17:13:30.333Z,27.06
2017-08-17T17:15:58.039Z,26.87
2017-08-17T17:18:25.711Z,26.73
2017-08-17T17:20:53.347Z,26.59
2017-08-17T17:23:21.025Z,26.57
2017-08-17T17:25:48.637Z,26.47
2017-08-17T17:28:16.259Z,26.40
2017-08-17T17:30:43.923Z,26.31
2017-08-17T17:33:11.527Z,26.18
2017-08-17T17:35:39.111Z,26.07
2017-08-17T17:38:06.735Z,25.98
2017-08-17T17:40:34.348Z,25.91
2017-08-17T17:43:01.968Z,25.77
2017-08-17T17:45:29.756Z,25.70
2017-08-17T17:47:57.379Z,25.53
2017-08-17T17:50:25.000Z,25.33
2017-08-17T17:52:52.665Z,25.27
2017-08-17T17:55:20.275Z,25.17
2017-08-17T17:57:47.908Z,24.97
2017-08-17T18:00:15.632Z,25.00
2017-08-17T18:02:43.251Z,24.94
2017-08-17T18:05:10.862Z,24.87
2017-08-17T18:07:38.521Z,24.69
2017-08-17T18:10:06.148Z,24.59
2017-08-17T18:12:33.753Z,24.58
2017-08-17T18:15:01.406Z,24.56
2017-08-17T18:17:29.347Z,24.53
2017-08-17T18:19:56.979Z,24.58
2017-08-17T18:22:24.914Z,24.52
2017-08-17T18:24:52.550Z,24.41
2017-08-17T18:27:20.335Z,24.38
2017-08-17T18:29:48.021Z,24.47
2017-08-17T18:32:15.640Z,24.45
2017-08-17T18:34:43.341Z,24.43
2017-08-17T18:37:11.114Z,24.42
2017-08-17T18:39:38.754Z,24.38
2017-08-17T18:42:06.596Z,24.35
2017-08-17T18:44:34.721Z,24.47
2017-08-17T18:47:02.564Z,24.59
2017-08-17T18:49:30.454Z,24.62
2017-08-17T18:51:58.205Z,24.63
2017-08-17T18:54:25.978Z,24.63
2017-08-17T18:56:53.699Z,24.51
2017-08-17T18:59:21.433Z,24.54
2017-08-17T19:01:49.208Z,24.56
2017-08-17T19:04:16.845Z,24.57
2017-08-17T19:06:44.520Z,24.62
2017-08-17T19:09:12.206Z,24.51
2017-08-17T19:11:39.869Z,24.41
2017-08-17T19:14:07.525Z,24.25
2017-08-17T19:16:35.211Z,24.19
2017-08-17T19:19:02.837Z,24.20
2017-08-17T19:21:30.606Z,24.18
2017-08-17T19:23:58.203Z,24.22
2017-08-17T19:26:25.838Z,24.20
2017-08-17T19:28:53.588Z,24.13
2017-08-17T19:31:21.250Z,24.07
2017-08-17T19:33:48.864Z,23.87
2017-08-17T19:36:16.546Z,23.58
2017-08-17T19:38:44.173Z,23.49
2017-08-17T19:41:11.804Z,23.38
2017-08-17T19:43:39.501Z,23.28
2017-08-17T19:46:07.150Z,23.12
2017-08-17T19:48:34.976Z,22.98
2017-08-17T19:51:02.780Z,22.86
2017-08-17T19:53:30.376Z,22.79
2017-08-17T19:55:57.990Z,22.75
2017-08-17T19:58:25.681Z,22.61
2017-08-17T20:00:53.308Z,22.54
2017-08-17T20:03:20.944Z,22.44
2017-08-17T20:05:48.647Z,22.53
2017-08-17T20:08:16.249Z,22.47
2017-08-17T20:10:43.841Z,22.45
2017-08-17T20:13:11.485Z,22.39
2017-08-17T20:15:39.104Z,22.31
2017-08-17T20:18:07.033Z,22.38
2017-08-17T20:20:34.710Z,22.21
2017-08-17T20:23:02.388Z,22.04
2017-08-17T20:25:30.022Z,22.12
2017-08-17T20:27:57.703Z,22.12
2017-08-17T20:30:25.359Z,22.12
2017-08-17T20:32:52.983Z,22.07
2017-08-17T20:35:20.637Z,21.97
2017-08-17T20:37:48.251Z,21.83
2017-08-17T20:40:15.860Z,21.79
2017-08-17T20:42:43.572Z,21.72
2017-08-17T20:45:11.196Z,21.59
2017-08-17T20:47:38.807Z,21.49
2017-08-17T20:50:06.469Z,21.53
2017-08-17T20:52:34.140Z,21.44
2017-08-17T20:55:01.761Z,21.42
2017-08-17T20:57:29.422Z,21.49
2017-08-17T20:59:57.036Z,21.47
2017-08-17T21:02:24.648Z,21.56
2017-08-17T21:04:52.384Z,21.44
2017-08-17T21:07:19.991Z,21.42
2017-08-17T21:09:47.607Z,21.44
2017-08-17T21:12:15.291Z,21.47
2017-08-17T21:14:42.907Z,21.36
2017-08-17T21:17:10.539Z,21.24
2017-08-17T21:19:38.213Z,21.14
2017-08-17T21:22:05.832Z,21.03
2017-08-17T21:24:33.434Z,20.88
2017-08-17T21:27:01.112Z,20.83
2017-08-17T21:29:28.734Z,20.80
2017-08-17T21:31:56.341Z,20.67
2017-08-17T21:34:24.049Z,20.65
2017-08-17T21:36:51.658Z,20.63
2017-08-17T21:39:19.269Z,20.59
2017-08-17T21:41:46.941Z,20.68
2017-08-17T21:44:14.542Z,20.70
2017-08-17T21:46:42.186Z,20.62
2017-08-17T21:49:09.852Z,20.62
2017-08-17T21:51:37.476Z,20.70
2017-08-17T21:54:05.078Z,20.61
2017-08-17T21:56:32.749Z,20.36
2017-08-17T21:59:00.368Z,20.14
2017-08-17T22:01:27.972Z,20.22
2017-08-17T22:03:55.644Z,20.22
2017-08-17T22:06:23.294Z,20.20
2017-08-17T22:08:50.904Z,20.21
2017-08-17T22:11:18.644Z,20.14
2017-08-17T22:13:46.253Z,20.10
2017-08-17T22:16:13.858Z,20.04
2017-08-17T22:18:41.529Z,20.03
2017-08-17T22:21:09.148Z,20.10
2017-08-17T22:23:36.764Z,20.10
2017-08-17T22:26:04.426Z,20.01
2017-08-17T22:28:32.033Z,19.88
2017-08-17T22:30:59.647Z,19.85
2017-08-17T22:33:27.310Z,19.92
2017-08-17T22:35:54.927Z,19.89
2017-08-17T22:38:22.534Z,19.82
2017-08-17T22:40:50.212Z,19.95
2017-08-17T22:43:17.821Z,19.82
2017-08-17T22:45:45.434Z,19.71
2017-08-17T22:48:13.104Z,19.85
2017-08-17T22:50:40.701Z,19.82
2017-08-17T22:53:08.310Z,19.78
2017-08-17T22:55:35.982Z,19.95
2017-08-17T22:58:03.594Z,19.86
2017-08-17T23:00:31.215Z,19.79
2017-08-17T23:02:58.878Z,19.73
2017-08-17T23:05:26.501Z,19.66
2017-08-17T23:07:54.145Z,19.59
2017-08-17T23:10:21.820Z,19.62
2017-08-17T23:12:49.457Z,19.44
2017-08-17T23:15:17.056Z,19.36
2017-08-17T23:17:44.752Z,19.27
2017-08-17T23:20:12.363Z,19.13
2017-08-17T23:22:39.983Z,18.99
2017-08-17T23:25:07.689Z,18.94
2017-08-17T23:27:35.298Z,18.87
2017-08-17T23:30:02.934Z,18.85
2017-08-17T23:32:30.615Z,18.80
2017-08-17T23:34:58.227Z,18.74
2017-08-17T23:37:25.839Z,18.72
2017-08-17T23:39:53.512Z,18.73
2017-08-17T23:42:21.116Z,18.71
2017-08-17T23:44:48.745Z,18.70
2017-08-17T23:47:16.414Z,18.76
2017-08-17T23:49:44.033Z,18.75
2017-08-17T23:52:11.677Z,18.74
2017-08-17T23:54:39.376Z,18.70
2017-08-17T23:57:06.977Z,18.55
2017-08-17T23:59:34.599Z,18.52
